createdAt,value
2018-04-23T00:02:24.717Z,20.86
2018-04-23T00:07:15.741Z,20.84
2018-04-23T00:12:06.777Z,20.78
2018-04-23T00:16:57.826Z,20.87
2018-04-23T00:21:48.836Z,20.91
2018-04-23T00:26:39.912Z,20.94
2018-04-23T00:31:31.672Z,20.85
2018-04-23T00:36:23.432Z,20.88
2018-04-23T00:41:14.461Z,20.89
2018-04-23T00:46:05.512Z,20.88
2018-04-23T00:50:56.545Z,20.85
2018-04-23T00:55:47.618Z,20.83
2018-04-23T01:00:38.632Z,20.86
2018-04-23T01:05:29.667Z,20.90
2018-04-23T01:10:20.704Z,20.86
2018-04-23T01:15:11.710Z,20.85
2018-04-23T01:20:02.721Z,20.76
2018-04-23T01:24:53.720Z,20.59
2018-04-23T01:29:45.512Z,20.49
2018-04-23T01:34:36.524Z,20.42
2018-04-23T01:39:27.575Z,20.36
2018-04-23T01:44:18.573Z,20.22
2018-04-23T01:49:09.570Z,20.27
2018-04-23T01:54:01.304Z,20.27
2018-04-23T01:58:53.043Z,20.28
2018-04-23T02:03:44.854Z,20.21
2018-04-23T02:08:37.343Z,20.09
2018-04-23T02:13:29.095Z,19.99
2018-04-23T02:18:20.115Z,19.94
2018-04-23T02:23:11.851Z,19.94
2018-04-23T02:28:03.624Z,19.87
2018-04-23T02:32:54.672Z,19.83
2018-04-23T02:37:45.675Z,19.84
2018-04-23T02:42:37.642Z,19.69
2018-04-23T02:47:28.640Z,19.68
2018-04-23T02:52:19.676Z,19.66
2018-04-23T02:57:10.742Z,19.53
2018-04-23T03:02:02.484Z,19.43
2018-04-23T03:06:54.230Z,19.40
2018-04-23T03:11:46.014Z,19.28
2018-04-23T03:16:37.017Z,19.11
2018-04-23T03:21:28.058Z,18.97
2018-04-23T03:26:19.062Z,18.95
2018-04-23T03:31:10.837Z,18.87
2018-04-23T03:36:01.862Z,18.86
2018-04-23T03:40:53.075Z,18.90
2018-04-23T03:45:44.071Z,18.72
2018-04-23T03:50:35.149Z,18.57
2018-04-23T03:55:26.169Z,18.52
2018-04-23T04:00:18.025Z,18.53
2018-04-23T04:05:09.784Z,18.49
2018-04-23T04:10:00.803Z,18.42
2018-04-23T04:15:11.452Z,18.25
2018-04-23T04:20:02.456Z,18.15
2018-04-23T04:24:53.467Z,18.03
2018-04-23T04:29:44.492Z,17.97
2018-04-23T04:34:36.999Z,17.87
2018-04-23T04:39:28.807Z,17.88
2018-04-23T04:44:19.807Z,17.89
2018-04-23T04:49:10.886Z,17.87
2018-04-23T04:54:02.675Z,17.91
2018-04-23T04:58:54.463Z,17.88
2018-04-23T05:03:46.211Z,17.87
2018-04-23T05:08:38.059Z,17.90
2018-04-23T05:13:29.795Z,17.93
2018-04-23T05:18:21.650Z,17.96
2018-04-23T05:23:12.624Z,17.98
2018-04-23T05:28:04.432Z,18.01
2018-04-23T05:32:55.458Z,18.09
2018-04-23T05:37:46.534Z,18.18
2018-04-23T05:42:38.447Z,18.19
2018-04-23T05:47:29.450Z,18.23
2018-04-23T05:52:20.468Z,18.29
2018-04-23T05:57:11.545Z,18.34
2018-04-23T06:02:03.412Z,18.43
2018-04-23T06:06:54.452Z,18.60
2018-04-23T06:11:45.459Z,18.80
2018-04-23T06:16:36.533Z,18.90
2018-04-23T06:21:27.660Z,18.95
2018-04-23T06:26:18.652Z,18.93
2018-04-23T06:31:09.687Z,18.97
2018-04-23T06:36:00.686Z,18.87
2018-04-23T06:40:51.696Z,18.88
2018-04-23T06:45:42.700Z,18.86
2018-04-23T06:50:34.460Z,18.85
2018-04-23T06:55:25.560Z,18.93
2018-04-23T07:00:17.346Z,18.96
2018-04-23T07:05:08.481Z,19.04
2018-04-23T07:09:59.411Z,19.10
2018-04-23T07:14:50.407Z,19.18
2018-04-23T07:19:41.513Z,19.26
2018-04-23T07:24:33.372Z,19.30
2018-04-23T07:29:24.383Z,19.35
2018-04-23T07:34:15.413Z,19.81
2018-04-23T07:39:06.518Z,21.17
2018-04-23T07:43:57.543Z,22.75
2018-04-23T07:48:49.308Z,24.14
2018-04-23T07:53:40.328Z,24.58
2018-04-23T07:58:31.407Z,25.03
2018-04-23T08:03:22.405Z,24.42
2018-04-23T08:08:13.500Z,24.86
2018-04-23T08:13:04.575Z,24.72
2018-04-23T08:17:55.575Z,24.65
2018-04-23T08:22:49.724Z,24.64
2018-04-23T08:27:40.719Z,24.23
2018-04-23T08:32:31.787Z,24.48
2018-04-23T08:37:22.794Z,23.71
2018-04-23T08:42:13.892Z,23.42
2018-04-23T08:47:04.940Z,23.09
2018-04-23T08:51:55.963Z,22.94
2018-04-23T08:56:46.999Z,23.10
2018-04-23T09:01:37.993Z,23.00
2018-04-23T09:06:29.739Z,22.99
2018-04-23T09:11:21.529Z,23.10
2018-04-23T09:16:12.617Z,23.30
2018-04-23T09:21:03.656Z,23.18
2018-04-23T09:25:54.731Z,23.24
2018-04-23T09:30:46.197Z,23.20
2018-04-23T09:35:37.268Z,22.53
2018-04-23T09:40:28.421Z,21.96
2018-04-23T09:45:20.324Z,21.91
2018-04-23T09:50:11.402Z,21.70
2018-04-23T09:55:02.391Z,21.57
2018-04-23T09:59:53.407Z,21.17
2018-04-23T10:04:44.551Z,20.75
2018-04-23T10:09:35.560Z,20.65
2018-04-23T10:14:26.660Z,20.58
2018-04-23T10:19:17.688Z,20.64
2018-04-23T10:24:08.806Z,20.72
2018-04-23T10:28:59.812Z,20.62
2018-04-23T10:33:50.867Z,20.66
2018-04-23T10:38:41.972Z,20.66
2018-04-23T10:43:33.025Z,20.68
2018-04-23T10:48:24.210Z,20.64
2018-04-23T10:53:15.215Z,20.42
2018-04-23T10:58:06.228Z,20.80
2018-04-23T11:02:57.979Z,21.03
2018-04-23T11:07:49.042Z,21.08
2018-04-23T11:12:40.055Z,21.32
2018-04-23T11:17:31.868Z,21.47
2018-04-23T11:22:22.871Z,21.82
2018-04-23T11:27:14.612Z,22.36
2018-04-23T11:32:06.440Z,22.59
2018-04-23T11:36:57.451Z,23.21
2018-04-23T11:41:48.519Z,23.77
2018-04-23T11:46:39.870Z,23.90
2018-04-23T11:51:31.196Z,23.94
2018-04-23T11:56:22.280Z,24.39
2018-04-23T12:01:14.037Z,24.54
2018-04-23T12:06:05.908Z,24.65
2018-04-23T12:10:56.931Z,24.80
2018-04-23T12:15:47.931Z,24.76
2018-04-23T12:20:38.968Z,24.50
2018-04-23T12:25:29.967Z,24.86
2018-04-23T12:30:21.741Z,25.02
2018-04-23T12:35:12.735Z,24.82
2018-04-23T12:40:04.552Z,24.98
2018-04-23T12:44:55.578Z,25.07
2018-04-23T12:49:46.642Z,25.30
2018-04-23T12:54:37.657Z,25.62
2018-04-23T12:59:29.540Z,25.44
2018-04-23T13:04:20.625Z,24.64
2018-04-23T13:09:12.391Z,24.36
2018-04-23T13:14:03.390Z,24.53
2018-04-23T13:18:54.456Z,24.68
2018-04-23T13:23:45.479Z,24.36
2018-04-23T13:28:36.644Z,24.13
2018-04-23T13:33:29.224Z,24.11
2018-04-23T13:38:27.144Z,24.12
2018-04-23T13:43:18.167Z,24.15
2018-04-23T13:48:09.280Z,24.29
2018-04-23T13:53:00.295Z,24.44
2018-04-23T13:57:51.411Z,24.66
2018-04-23T14:02:42.437Z,24.85
2018-04-23T14:07:33.485Z,25.00
2018-04-23T14:12:24.522Z,25.16
2018-04-23T14:17:15.536Z,25.28
2018-04-23T14:22:06.607Z,24.95
2018-04-23T14:26:58.355Z,24.87
2018-04-23T14:31:50.097Z,25.01
2018-04-23T14:36:41.181Z,24.91
2018-04-23T14:41:32.207Z,24.76
2018-04-23T14:46:23.212Z,24.62
2018-04-23T14:51:14.278Z,24.48
2018-04-23T14:56:06.048Z,24.47
2018-04-23T15:00:58.193Z,24.53
2018-04-23T15:05:49.372Z,24.46
2018-04-23T15:10:40.541Z,24.44
2018-04-23T15:15:31.643Z,24.46
2018-04-23T15:20:23.422Z,24.40
2018-04-23T15:25:14.559Z,23.99
2018-04-23T15:30:05.722Z,23.70
2018-04-23T15:34:57.495Z,23.57
2018-04-23T15:39:48.499Z,23.55
2018-04-23T15:44:40.272Z,23.64
2018-04-23T15:49:31.308Z,23.60
2018-04-23T15:54:22.375Z,23.67
2018-04-23T15:59:14.164Z,23.68
2018-04-23T16:04:05.280Z,23.85
2018-04-23T16:08:56.295Z,23.80
2018-04-23T16:13:47.320Z,23.86
2018-04-23T16:18:38.329Z,23.85
2018-04-23T16:23:29.416Z,23.87
2018-04-23T16:28:20.475Z,23.81
2018-04-23T16:33:11.532Z,23.76
2018-04-23T16:38:02.543Z,23.66
2018-04-23T16:42:53.555Z,23.62
2018-04-23T16:47:44.599Z,23.49
2018-04-23T16:52:35.607Z,23.42
2018-04-23T16:57:26.742Z,23.32
2018-04-23T17:02:17.782Z,23.17
2018-04-23T17:07:08.787Z,22.92
2018-04-23T17:11:59.811Z,22.86
2018-04-23T17:16:50.823Z,22.81
2018-04-23T17:21:41.951Z,22.76
2018-04-23T17:26:32.977Z,22.69
2018-04-23T17:31:24.049Z,22.65
2018-04-23T17:36:15.149Z,22.47
2018-04-23T17:41:06.173Z,22.35
2018-04-23T17:45:57.992Z,22.13
2018-04-23T17:50:49.007Z,22.03
2018-04-23T17:55:40.108Z,21.96
2018-04-23T18:00:31.962Z,21.88
2018-04-23T18:05:22.984Z,21.83
2018-04-23T18:10:14.024Z,21.77
2018-04-23T18:15:05.047Z,21.68
2018-04-23T18:19:56.092Z,21.57
2018-04-23T18:24:47.123Z,21.48
2018-04-23T18:29:38.121Z,21.41
2018-04-23T18:34:29.120Z,21.34
2018-04-23T18:39:20.206Z,21.19
2018-04-23T18:44:11.279Z,21.04
2018-04-23T18:49:02.271Z,20.99
2018-04-23T18:53:54.031Z,20.89
2018-04-23T18:58:45.780Z,20.71
2018-04-23T19:03:36.900Z,20.64
2018-04-23T19:08:27.896Z,20.58
2018-04-23T19:13:18.892Z,20.50
2018-04-23T19:18:09.962Z,20.43
2018-04-23T19:23:01.008Z,20.36
2018-04-23T19:27:52.045Z,20.32
2018-04-23T19:32:43.053Z,20.24
2018-04-23T19:37:34.055Z,20.14
2018-04-23T19:42:25.301Z,20.08
2018-04-23T19:47:16.324Z,19.97
2018-04-23T19:52:07.330Z,19.86
2018-04-23T19:56:58.331Z,19.74
2018-04-23T20:01:50.083Z,19.64
2018-04-23T20:06:41.893Z,19.53
2018-04-23T20:11:32.929Z,19.40
2018-04-23T20:16:23.936Z,19.33
2018-04-23T20:21:15.006Z,19.18
2018-04-23T20:26:06.056Z,19.08
2018-04-23T20:30:57.063Z,19.04
2018-04-23T20:35:48.072Z,18.91
2018-04-23T20:40:39.071Z,18.88
2018-04-23T20:45:30.828Z,18.83
2018-04-23T20:50:22.616Z,18.76
2018-04-23T20:55:13.628Z,18.67
2018-04-23T21:00:04.640Z,18.69
2018-04-23T21:04:55.648Z,18.68
2018-04-23T21:09:46.696Z,18.55
2018-04-23T21:14:37.699Z,18.43
2018-04-23T21:19:28.750Z,18.39
2018-04-23T21:24:19.771Z,18.35
2018-04-23T21:29:10.823Z,18.31
2018-04-23T21:34:01.846Z,18.14
2018-04-23T21:38:52.887Z,18.17
2018-04-23T21:43:44.717Z,18.17
2018-04-23T21:48:36.483Z,18.04
2018-04-23T21:53:27.483Z,18.05
2018-04-23T21:58:18.572Z,17.98
2018-04-23T22:03:09.600Z,17.93
2018-04-23T22:08:00.643Z,17.88
2018-04-23T22:12:51.751Z,17.81
2018-04-23T22:17:42.752Z,17.74
2018-04-23T22:22:33.754Z,17.70
2018-04-23T22:27:24.758Z,17.63
2018-04-23T22:32:16.524Z,17.62
2018-04-23T22:37:07.553Z,17.55
2018-04-23T22:41:58.560Z,17.45
2018-04-23T22:46:49.986Z,17.39
2018-04-23T22:51:41.031Z,17.35
2018-04-23T22:56:32.127Z,17.26
2018-04-23T23:01:23.129Z,17.14
2018-04-23T23:06:14.886Z,17.04
2018-04-23T23:11:06.670Z,16.95
2018-04-23T23:15:57.715Z,16.92
2018-04-23T23:20:49.488Z,16.91
2018-04-23T23:25:41.235Z,16.90
2018-04-23T23:30:32.269Z,16.84
2018-04-23T23:35:23.255Z,16.75
2018-04-23T23:40:15.028Z,16.63
2018-04-23T23:45:06.163Z,16.55
2018-04-23T23:49:57.200Z,16.49
2018-04-23T23:54:48.201Z,16.38
2018-04-23T23:59:39.257Z,16.35
